createdAt,value
2022-07-27T00:01:10.471Z,102075.13
2022-07-27T00:03:38.796Z,102075.97
2022-07-27T00:06:06.999Z,102071.19
2022-07-27T00:08:35.490Z,102077.34
2022-07-27T00:11:04.771Z,102070.28
2022-07-27T00:13:33.127Z,102072.81
2022-07-27T00:16:00.990Z,102070.53
2022-07-27T00:18:28.980Z,102067.13
2022-07-27T00:20:56.779Z,102062.00
2022-07-27T00:23:24.635Z,102063.06
2022-07-27T00:25:52.829Z,102067.25
2022-07-27T00:28:22.023Z,102063.00
2022-07-27T00:30:49.803Z,102069.19
2022-07-27T00:33:17.765Z,102065.50
2022-07-27T00:35:45.829Z,102062.88
2022-07-27T00:38:13.596Z,102063.41
2022-07-27T00:40:41.394Z,102065.09
2022-07-27T00:43:09.161Z,102049.88
2022-07-27T00:45:38.275Z,102061.97
2022-07-27T00:48:06.931Z,102060.00
2022-07-27T00:50:34.824Z,102061.97
2022-07-27T00:53:04.839Z,102061.97
2022-07-27T00:55:33.604Z,102060.84
2022-07-27T00:58:01.644Z,102064.78
2022-07-27T01:00:29.612Z,102061.97
2022-07-27T01:02:58.950Z,102061.97
2022-07-27T01:05:36.619Z,102064.25
2022-07-27T01:08:12.481Z,102068.50
2022-07-27T01:10:40.903Z,102065.19
2022-07-27T01:13:12.488Z,102062.09
2022-07-27T01:15:41.916Z,102058.75
2022-07-27T01:18:13.848Z,102062.47
2022-07-27T01:20:42.402Z,102061.41
2022-07-27T01:23:11.963Z,102062.31
2022-07-27T01:25:42.376Z,102058.44
2022-07-27T01:28:10.177Z,102061.00
2022-07-27T01:30:38.087Z,102056.28
2022-07-27T01:33:07.358Z,102056.06
2022-07-27T01:35:36.227Z,102060.59
2022-07-27T01:38:04.795Z,102051.66
2022-07-27T01:40:34.114Z,102055.31
2022-07-27T01:43:01.848Z,102048.31
2022-07-27T01:45:29.904Z,102050.56
2022-07-27T01:47:57.652Z,102055.66
2022-07-27T01:50:25.433Z,102049.19
2022-07-27T01:52:53.185Z,102048.66
2022-07-27T01:55:21.049Z,102047.81
2022-07-27T01:57:50.374Z,102046.69
2022-07-27T02:00:18.344Z,102048.66
2022-07-27T02:02:46.060Z,102045.00
2022-07-27T02:05:14.002Z,102051.19
2022-07-27T02:07:42.388Z,102051.19
2022-07-27T02:10:11.198Z,102043.88
2022-07-27T02:12:38.272Z,102047.53
2022-07-27T02:15:15.130Z,102047.22
2022-07-27T02:17:44.746Z,102051.72
2022-07-27T02:20:14.682Z,102051.72
2022-07-27T02:22:42.824Z,102047.22
2022-07-27T02:25:12.882Z,102044.41
2022-07-27T02:27:42.363Z,102039.94
2022-07-27T02:30:13.777Z,102047.00
2022-07-27T02:32:44.383Z,102041.13
2022-07-27T02:35:19.133Z,102041.41
2022-07-27T02:37:48.012Z,102037.56
2022-07-27T02:40:17.157Z,102042.63
2022-07-27T02:42:45.687Z,102042.09
2022-07-27T02:45:15.532Z,102042.41
2022-07-27T02:47:43.519Z,102049.16
2022-07-27T02:50:11.528Z,102036.84
2022-07-27T02:52:39.510Z,102043.06
2022-07-27T02:55:08.684Z,102046.16
2022-07-27T02:57:40.844Z,102046.44
2022-07-27T03:00:12.388Z,102040.28
2022-07-27T03:02:41.880Z,102036.13
2022-07-27T03:05:11.535Z,102040.38
2022-07-27T03:07:39.620Z,102049.41
2022-07-27T03:10:08.484Z,102040.41
2022-07-27T03:12:36.195Z,102033.41
2022-07-27T03:15:04.356Z,102040.47
2022-07-27T03:17:32.891Z,102038.50
2022-07-27T03:20:02.044Z,102044.13
2022-07-27T03:22:32.505Z,102041.59
2022-07-27T03:25:00.369Z,102042.75
2022-07-27T03:27:29.294Z,102033.78
2022-07-27T03:29:57.380Z,102031.56
2022-07-27T03:32:25.185Z,102034.13
2022-07-27T03:34:52.943Z,102044.84
2022-07-27T03:37:22.122Z,102042.88
2022-07-27T03:39:49.895Z,102044.00
2022-07-27T03:42:17.716Z,102049.06
2022-07-27T03:44:45.538Z,102046.84
2022-07-27T03:47:13.268Z,102050.25
2022-07-27T03:49:41.051Z,102046.06
2022-07-27T03:52:09.249Z,102051.13
2022-07-27T03:54:40.425Z,102055.34
2022-07-27T03:57:08.190Z,102049.19
2022-07-27T03:59:36.293Z,102054.81
2022-07-27T04:02:04.834Z,102060.44
2022-07-27T04:04:33.520Z,102051.47
2022-07-27T04:07:02.036Z,102056.53
2022-07-27T04:09:29.838Z,102054.31
2022-07-27T04:12:00.530Z,102058.53
2022-07-27T04:14:28.720Z,102052.38
2022-07-27T04:16:56.511Z,102065.88
2022-07-27T04:19:24.241Z,102059.41
2022-07-27T04:21:52.138Z,102062.53
2022-07-27T04:24:19.869Z,102050.47
2022-07-27T04:26:47.674Z,102070.13
2022-07-27T04:29:20.497Z,102066.47
2022-07-27T04:31:49.009Z,102064.81
2022-07-27T04:34:16.813Z,102068.44
2022-07-27T04:36:44.691Z,102063.38
2022-07-27T04:39:12.908Z,102064.19
2022-07-27T04:41:40.929Z,102063.06
2022-07-27T04:44:08.638Z,102063.91
2022-07-27T04:46:37.986Z,102066.13
2022-07-27T04:49:06.296Z,102063.59
2022-07-27T04:51:35.364Z,102062.47
2022-07-27T04:54:03.701Z,102066.41
2022-07-27T04:56:31.409Z,102073.16
2022-07-27T04:58:59.157Z,102063.91
2022-07-27T05:01:31.623Z,102072.31
2022-07-27T05:04:04.052Z,102077.94
2022-07-27T05:06:32.844Z,102075.13
2022-07-27T05:09:00.671Z,102076.81
2022-07-27T05:11:28.414Z,102079.31
2022-07-27T05:13:56.200Z,102084.66
2022-07-27T05:16:28.503Z,102081.53
2022-07-27T05:18:56.697Z,102075.34
2022-07-27T05:21:26.010Z,102085.69
2022-07-27T05:23:53.911Z,102079.50
2022-07-27T05:26:23.110Z,102079.75
2022-07-27T05:28:51.010Z,102084.50
2022-07-27T05:31:19.658Z,102084.75
2022-07-27T05:33:49.745Z,102085.53
2022-07-27T05:36:18.380Z,102084.88
2022-07-27T05:38:47.489Z,102093.22
2022-07-27T05:41:15.267Z,102088.06
2022-07-27T05:43:42.990Z,102096.69
2022-07-27T05:46:10.862Z,102096.06
2022-07-27T05:48:38.684Z,102101.28
2022-07-27T05:51:06.679Z,102101.78
2022-07-27T05:53:35.568Z,102109.03
2022-07-27T05:56:05.005Z,102107.81
2022-07-27T05:58:32.777Z,102099.31
2022-07-27T06:01:01.379Z,102102.06
2022-07-27T06:03:29.283Z,102106.81
2022-07-27T06:06:17.436Z,102112.03
2022-07-27T06:08:44.928Z,102113.13
2022-07-27T06:11:14.460Z,102109.66
2022-07-27T06:13:42.668Z,102111.25
2022-07-27T06:16:11.189Z,102116.50
2022-07-27T06:18:39.187Z,102120.09
2022-07-27T06:21:07.069Z,102113.25
2022-07-27T06:23:34.811Z,102114.25
2022-07-27T06:26:02.833Z,102115.75
2022-07-27T06:28:32.199Z,102120.63
2022-07-27T06:31:00.338Z,102126.06
2022-07-27T06:33:29.474Z,102133.84
2022-07-27T06:35:59.499Z,102128.13
2022-07-27T06:38:28.084Z,102138.56
2022-07-27T06:40:56.947Z,102141.16
2022-07-27T06:43:26.595Z,102144.56
2022-07-27T06:45:56.166Z,102136.13
2022-07-27T06:48:23.948Z,102140.31
2022-07-27T06:50:52.396Z,102135.44
2022-07-27T06:53:21.363Z,102143.47
2022-07-27T06:55:49.817Z,102139.97
2022-07-27T06:58:18.229Z,102148.22
2022-07-27T07:00:46.140Z,102151.22
2022-07-27T07:03:15.299Z,102141.19
2022-07-27T07:05:45.626Z,102140.19
2022-07-27T07:08:14.597Z,102138.66
2022-07-27T07:10:45.212Z,102149.72
2022-07-27T07:13:13.704Z,102153.19
2022-07-27T07:15:42.918Z,102151.81
2022-07-27T07:18:11.874Z,102158.28
2022-07-27T07:20:41.746Z,102160.47
2022-07-27T07:23:09.855Z,102168.34
2022-07-27T07:25:38.087Z,102161.72
2022-07-27T07:28:06.962Z,102166.69
2022-07-27T07:30:35.197Z,102160.69
2022-07-27T07:33:03.539Z,102160.16
2022-07-27T07:35:31.698Z,102157.38
2022-07-27T07:38:00.856Z,102163.53
2022-07-27T07:40:45.073Z,102158.66
2022-07-27T07:43:14.431Z,102159.44
2022-07-27T07:45:49.508Z,102168.03
2022-07-27T07:48:19.389Z,102170.78
2022-07-27T07:50:52.281Z,102166.56
2022-07-27T07:53:22.988Z,102170.16
2022-07-27T07:55:51.674Z,102179.97
2022-07-27T07:58:19.974Z,102178.75
2022-07-27T08:00:47.916Z,102172.69
2022-07-27T08:03:16.193Z,102179.53
2022-07-27T08:05:44.777Z,102168.53
2022-07-27T08:08:12.763Z,102166.28
2022-07-27T08:10:41.929Z,102171.38
2022-07-27T08:13:09.760Z,102170.19
2022-07-27T08:15:37.544Z,102168.28
2022-07-27T08:18:06.352Z,102174.56
2022-07-27T08:20:34.474Z,102174.00
2022-07-27T08:23:02.502Z,102178.53
2022-07-27T08:25:30.617Z,102170.31
2022-07-27T08:28:00.144Z,102176.50
2022-07-27T08:30:30.454Z,102181.13
2022-07-27T08:33:01.685Z,102185.22
2022-07-27T08:35:31.025Z,102182.47
2022-07-27T08:37:59.522Z,102178.28
2022-07-27T08:40:39.585Z,102176.16
2022-07-27T08:43:11.279Z,102180.22
2022-07-27T08:45:41.433Z,102176.06
2022-07-27T08:48:13.731Z,102177.63
2022-07-27T08:50:43.275Z,102177.97
2022-07-27T08:53:14.039Z,102179.22
2022-07-27T08:55:43.661Z,102180.41
2022-07-27T08:58:14.592Z,102178.00
2022-07-27T09:00:44.784Z,102188.41
2022-07-27T09:03:18.449Z,102191.31
2022-07-27T09:05:52.281Z,102180.41
2022-07-27T09:08:24.389Z,102177.53
2022-07-27T09:10:54.532Z,102178.72
2022-07-27T09:13:26.801Z,102171.03
2022-07-27T09:16:17.668Z,102177.00
2022-07-27T09:18:44.523Z,102182.47
2022-07-27T09:21:15.718Z,102183.91
2022-07-27T09:23:45.912Z,102183.31
2022-07-27T09:26:31.097Z,102183.94
2022-07-27T09:29:03.540Z,102197.00
2022-07-27T09:31:33.018Z,102194.88
2022-07-27T09:34:03.037Z,102194.06
2022-07-27T09:36:31.721Z,102197.22
2022-07-27T09:39:03.383Z,102203.97
2022-07-27T09:41:42.164Z,102191.38
2022-07-27T09:47:00.005Z,102186.88
2022-07-27T09:49:30.377Z,102186.72
2022-07-27T09:52:01.425Z,102187.09
2022-07-27T09:54:43.482Z,102182.56
2022-07-27T09:57:11.263Z,102185.53
2022-07-27T09:59:40.551Z,102180.88
2022-07-27T10:02:09.004Z,102178.69
2022-07-27T10:04:36.970Z,102179.81
2022-07-27T10:07:09.338Z,102192.09
2022-07-27T10:09:39.510Z,102191.47
2022-07-27T10:12:07.909Z,102193.25
2022-07-27T10:14:36.176Z,102188.56
2022-07-27T10:17:06.987Z,102182.91
2022-07-27T10:19:42.310Z,102184.31
2022-07-27T10:22:10.055Z,102185.72
2022-07-27T10:24:37.846Z,102187.06
2022-07-27T10:27:22.116Z,102184.22
2022-07-27T10:29:51.861Z,102188.84
2022-07-27T10:32:31.121Z,102182.78
2022-07-27T10:34:59.865Z,102185.34
2022-07-27T10:37:29.581Z,102193.59
2022-07-27T10:40:17.345Z,102187.44
2022-07-27T10:42:50.420Z,102182.06
2022-07-27T10:45:22.076Z,102178.78
2022-07-27T10:47:53.275Z,102193.63
2022-07-27T10:50:33.320Z,102184.53
2022-07-27T10:53:11.134Z,102197.31
2022-07-27T10:55:46.560Z,102181.25
2022-07-27T10:58:45.302Z,102182.88
2022-07-27T11:01:15.493Z,102172.59
2022-07-27T11:03:52.671Z,102177.97
2022-07-27T11:06:32.908Z,102179.59
2022-07-27T11:09:53.168Z,102185.38
2022-07-27T11:11:53.162Z,102184.59
2022-07-27T11:14:30.885Z,102179.63
2022-07-27T11:19:54.725Z,102180.84
2022-07-27T11:23:03.247Z,102177.16
2022-07-27T11:25:21.234Z,102183.75
2022-07-27T11:27:49.659Z,102190.31
2022-07-27T11:30:25.173Z,102184.94
2022-07-27T11:32:53.556Z,102189.47
2022-07-27T11:35:23.035Z,102182.88
2022-07-27T11:38:01.742Z,102194.28
2022-07-27T11:43:38.278Z,102193.22
2022-07-27T11:46:16.759Z,102193.53
2022-07-27T11:49:11.606Z,102183.72
2022-07-27T11:51:43.084Z,102187.19
2022-07-27T11:54:12.177Z,102180.75
2022-07-27T11:56:43.325Z,102185.66
2022-07-27T11:59:14.437Z,102187.34
2022-07-27T12:01:45.151Z,102195.22
2022-07-27T12:04:25.475Z,102188.13
2022-07-27T12:07:03.438Z,102181.91
2022-07-27T12:09:36.775Z,102187.53
2022-07-27T12:12:13.894Z,102187.94
2022-07-27T12:14:43.998Z,102187.53
2022-07-27T12:17:27.060Z,102183.41
2022-07-27T12:20:01.151Z,102183.38
2022-07-27T12:22:35.973Z,102188.81
2022-07-27T12:25:16.052Z,102194.69
2022-07-27T12:27:54.496Z,102191.31
2022-07-27T12:30:31.229Z,102192.94
2022-07-27T12:32:59.954Z,102188.47
2022-07-27T12:35:35.984Z,102183.53
2022-07-27T12:38:08.124Z,102185.59
2022-07-27T12:40:36.148Z,102179.91
2022-07-27T12:43:05.539Z,102181.59
2022-07-27T12:45:36.014Z,102173.09
2022-07-27T12:48:11.330Z,102171.06
2022-07-27T12:50:40.332Z,102175.13
2022-07-27T12:53:10.513Z,102178.03
2022-07-27T12:55:38.487Z,102176.84
2022-07-27T12:58:06.274Z,102181.84
2022-07-27T13:00:34.453Z,102178.06
2022-07-27T13:03:03.822Z,102190.00
2022-07-27T13:05:32.453Z,102191.22
2022-07-27T13:08:00.813Z,102199.81
2022-07-27T13:10:30.288Z,102196.53
2022-07-27T13:12:58.421Z,102189.88
2022-07-27T13:15:26.654Z,102185.28
2022-07-27T13:17:54.439Z,102187.97
2022-07-27T13:20:22.375Z,102186.66
2022-07-27T13:22:50.775Z,102186.50
2022-07-27T13:25:18.994Z,102191.47
2022-07-27T13:27:49.463Z,102188.56
2022-07-27T13:30:18.822Z,102191.31
2022-07-27T13:32:47.911Z,102194.00
2022-07-27T13:35:17.037Z,102193.19
2022-07-27T13:37:45.617Z,102193.50
2022-07-27T13:40:14.612Z,102186.94
2022-07-27T13:42:42.460Z,102174.25
2022-07-27T13:45:12.593Z,102180.72
2022-07-27T13:47:41.824Z,102181.47
2022-07-27T13:50:17.762Z,102177.84
2022-07-27T13:52:46.743Z,102181.00
2022-07-27T13:55:15.136Z,102177.00
2022-07-27T13:57:43.237Z,102183.50
2022-07-27T14:00:13.549Z,102178.19
2022-07-27T14:02:41.832Z,102178.53
2022-07-27T14:05:13.179Z,102178.75
2022-07-27T14:07:43.008Z,102175.81
2022-07-27T14:10:28.747Z,102169.88
2022-07-27T14:12:59.106Z,102177.78
2022-07-27T14:15:28.691Z,102168.31
2022-07-27T14:17:56.426Z,102169.06
2022-07-27T14:20:24.245Z,102174.03
2022-07-27T14:22:52.234Z,102169.34
2022-07-27T14:25:20.099Z,102171.66
2022-07-27T14:27:48.002Z,102174.81
2022-07-27T14:30:20.607Z,102167.66
2022-07-27T14:32:50.332Z,102163.91
2022-07-27T14:35:18.573Z,102166.09
2022-07-27T14:37:49.375Z,102160.19
2022-07-27T14:40:17.108Z,102156.69
2022-07-27T14:42:45.905Z,102149.06
2022-07-27T14:45:13.763Z,102145.19
2022-07-27T14:47:41.508Z,102143.97
2022-07-27T14:50:11.156Z,102145.53
2022-07-27T14:52:39.038Z,102151.13
2022-07-27T14:55:08.105Z,102142.25
2022-07-27T14:57:35.917Z,102140.97
2022-07-27T15:00:10.039Z,102138.94
2022-07-27T15:02:38.305Z,102140.13
2022-07-27T15:05:07.693Z,102146.56
2022-07-27T15:07:37.665Z,102143.34
2022-07-27T15:10:08.961Z,102146.56
2022-07-27T15:12:38.119Z,102148.28
2022-07-27T15:15:08.873Z,102149.00
2022-07-27T15:17:37.743Z,102143.34
2022-07-27T15:20:08.427Z,102149.81
2022-07-27T15:22:37.993Z,102142.22
2022-07-27T15:25:07.570Z,102139.56
2022-07-27T15:27:39.746Z,102144.78
2022-07-27T15:30:08.736Z,102140.03
2022-07-27T15:32:39.354Z,102148.81
2022-07-27T15:35:09.436Z,102141.66
2022-07-27T15:37:38.560Z,102143.78
2022-07-27T15:40:25.100Z,102147.72
2022-07-27T15:42:52.826Z,102147.13
2022-07-27T15:45:20.554Z,102141.94
2022-07-27T15:47:52.658Z,102137.88
2022-07-27T15:50:21.134Z,102136.94
2022-07-27T15:52:50.235Z,102149.47
2022-07-27T15:55:18.001Z,102141.38
2022-07-27T15:57:45.749Z,102141.59
2022-07-27T16:00:14.752Z,102136.03
2022-07-27T16:02:42.850Z,102141.59
2022-07-27T16:05:11.592Z,102142.31
2022-07-27T16:07:40.697Z,102141.38
2022-07-27T16:10:11.722Z,102139.94
2022-07-27T16:12:40.424Z,102141.13
2022-07-27T16:15:12.078Z,102139.31
2022-07-27T16:17:39.854Z,102140.16
2022-07-27T16:20:08.942Z,102127.56
2022-07-27T16:22:39.377Z,102133.03
2022-07-27T16:25:07.536Z,102128.88
2022-07-27T16:27:36.602Z,102126.00
2022-07-27T16:30:05.470Z,102127.44
2022-07-27T16:32:35.898Z,102124.50
2022-07-27T16:35:03.667Z,102136.25
2022-07-27T16:37:38.229Z,102128.66
2022-07-27T16:40:07.180Z,102135.41
2022-07-27T16:42:38.075Z,102123.09
2022-07-27T16:45:07.134Z,102126.38
2022-07-27T16:47:36.719Z,102120.69
2022-07-27T16:50:05.392Z,102112.84
2022-07-27T16:52:33.241Z,102121.28
2022-07-27T16:55:01.155Z,102115.34
2022-07-27T16:57:29.212Z,102103.94
2022-07-27T16:59:59.732Z,102111.50
2022-07-27T17:02:30.207Z,102102.50
2022-07-27T17:04:58.273Z,102109.47
2022-07-27T17:07:29.097Z,102100.00
2022-07-27T17:10:00.084Z,102105.72
2022-07-27T17:12:27.910Z,102106.75
2022-07-27T17:14:57.852Z,102109.19
2022-07-27T17:17:25.563Z,102110.13
2022-07-27T17:19:56.111Z,102109.00
2022-07-27T17:22:23.845Z,102109.44
2022-07-27T17:24:51.572Z,102108.31
2022-07-27T17:27:21.987Z,102096.66
2022-07-27T17:29:51.591Z,102101.56
2022-07-27T17:32:20.644Z,102095.25
2022-07-27T17:34:48.411Z,102099.91
2022-07-27T17:37:17.899Z,102095.44
2022-07-27T17:39:45.657Z,102095.16
2022-07-27T17:42:16.278Z,102098.03
2022-07-27T17:44:44.006Z,102095.63
2022-07-27T17:47:11.750Z,102099.31
2022-07-27T17:49:42.351Z,102103.19
2022-07-27T17:52:10.247Z,102103.53
2022-07-27T17:54:39.837Z,102111.59
2022-07-27T17:57:07.714Z,102116.97
2022-07-27T17:59:38.220Z,102113.47
2022-07-27T18:02:06.635Z,102119.16
2022-07-27T18:04:39.207Z,102111.88
2022-07-27T18:07:12.033Z,102116.72
2022-07-27T18:09:39.915Z,102116.25
2022-07-27T18:12:08.231Z,102116.25
2022-07-27T18:14:38.415Z,102115.75
2022-07-27T18:17:06.309Z,102119.91
2022-07-27T18:19:34.067Z,102117.09
2022-07-27T18:22:01.938Z,102121.22
2022-07-27T18:24:37.007Z,102119.91
2022-07-27T18:27:05.585Z,102118.72
2022-07-27T18:29:33.391Z,102108.72
2022-07-27T18:32:03.660Z,102118.03
2022-07-27T18:34:32.526Z,102115.50
2022-07-27T18:37:00.307Z,102117.47
2022-07-27T18:39:33.659Z,102115.63
2022-07-27T18:42:03.758Z,102111.75
2022-07-27T18:44:38.595Z,102110.28
2022-07-27T18:47:07.073Z,102117.75
2022-07-27T18:49:34.905Z,102116.53
2022-07-27T18:52:02.737Z,102112.34
2022-07-27T18:54:30.512Z,102112.28
2022-07-27T18:57:00.927Z,102115.63
2022-07-27T18:59:30.098Z,102116.91
2022-07-27T19:02:04.983Z,102111.72
2022-07-27T19:04:32.850Z,102122.34
2022-07-27T19:07:01.527Z,102120.81
2022-07-27T19:09:30.130Z,102122.94
2022-07-27T19:11:57.867Z,102119.38
2022-07-27T19:14:25.611Z,102127.69
2022-07-27T19:16:59.267Z,102124.13
2022-07-27T19:19:30.906Z,102122.91
2022-07-27T19:22:00.658Z,102129.66
2022-07-27T19:24:28.454Z,102130.09
2022-07-27T19:26:56.186Z,102131.69
2022-07-27T19:29:23.981Z,102131.84
2022-07-27T19:31:51.756Z,102129.13
2022-07-27T19:34:20.966Z,102137.72
2022-07-27T19:36:51.566Z,102137.84
2022-07-27T19:39:19.406Z,102140.28
2022-07-27T19:41:47.460Z,102134.22
2022-07-27T19:44:20.409Z,102141.97
2022-07-27T19:46:53.275Z,102145.03
2022-07-27T19:49:25.206Z,102148.25
2022-07-27T19:51:52.814Z,102152.25
2022-07-27T19:54:20.658Z,102159.25
2022-07-27T19:56:48.389Z,102155.91
2022-07-27T19:59:17.811Z,102156.84
2022-07-27T20:01:45.744Z,102158.09
2022-07-27T20:04:13.569Z,102160.81
2022-07-27T20:06:44.313Z,102168.53
2022-07-27T20:09:12.318Z,102166.94
2022-07-27T20:11:41.954Z,102161.41
2022-07-27T20:14:09.792Z,102166.31
2022-07-27T20:16:38.816Z,102169.53
2022-07-27T20:19:06.665Z,102165.13
2022-07-27T20:21:36.481Z,102167.22
2022-07-27T20:24:08.039Z,102164.03
2022-07-27T20:26:35.733Z,102164.72
2022-07-27T20:29:03.486Z,102160.22
2022-07-27T20:31:31.194Z,102160.31
2022-07-27T20:33:58.944Z,102155.91
2022-07-27T20:36:29.049Z,102162.44
2022-07-27T20:39:00.769Z,102159.72
2022-07-27T20:41:35.296Z,102154.16
2022-07-27T20:44:03.037Z,102159.03
2022-07-27T20:46:30.932Z,102157.16
2022-07-27T20:48:58.907Z,102157.25
2022-07-27T20:51:26.846Z,102153.66
2022-07-27T20:53:58.631Z,102156.00
2022-07-27T20:56:26.378Z,102157.53
2022-07-27T20:58:55.480Z,102156.47
2022-07-27T21:01:23.264Z,102154.84
2022-07-27T21:03:51.110Z,102157.44
2022-07-27T21:06:18.835Z,102153.56
2022-07-27T21:08:47.071Z,102151.66
2022-07-27T21:11:16.363Z,102161.00
2022-07-27T21:13:44.234Z,102154.28
2022-07-27T21:16:13.354Z,102162.53
2022-07-27T21:18:41.172Z,102155.25
2022-07-27T21:21:08.995Z,102159.81
2022-07-27T21:23:54.124Z,102164.34
2022-07-27T21:26:22.047Z,102159.09
2022-07-27T21:28:50.960Z,102157.19
2022-07-27T21:31:20.106Z,102157.78
2022-07-27T21:33:49.109Z,102149.09
2022-07-27T21:36:16.912Z,102161.78
2022-07-27T21:38:44.607Z,102153.09
2022-07-27T21:41:15.083Z,102153.72
2022-07-27T21:43:43.109Z,102158.50
2022-07-27T21:46:11.038Z,102159.63
2022-07-27T21:48:43.561Z,102152.88
2022-07-27T21:51:11.369Z,102147.84
2022-07-27T21:53:39.120Z,102147.84
2022-07-27T21:56:06.884Z,102148.97
2022-07-27T21:58:34.680Z,102156.88
2022-07-27T22:01:02.560Z,102151.56
2022-07-27T22:03:30.477Z,102153.81
2022-07-27T22:05:59.646Z,102159.97
2022-07-27T22:08:28.770Z,102154.66
2022-07-27T22:10:56.560Z,102160.28
2022-07-27T22:13:24.304Z,102160.28
2022-07-27T22:15:52.044Z,102147.34
2022-07-27T22:18:19.966Z,102147.66
2022-07-27T22:20:47.762Z,102149.63
2022-07-27T22:23:17.063Z,102146.81
2022-07-27T22:25:44.889Z,102143.16
2022-07-27T22:28:12.825Z,102147.66
2022-07-27T22:30:41.140Z,102148.78
2022-07-27T22:33:08.997Z,102140.34
2022-07-27T22:35:36.726Z,102145.97
2022-07-27T22:38:04.559Z,102152.72
2022-07-27T22:40:33.752Z,102146.81
2022-07-27T22:43:01.529Z,102152.72
2022-07-27T22:45:29.302Z,102147.41
2022-07-27T22:47:59.453Z,102146.88
2022-07-27T22:50:27.321Z,102158.09
2022-07-27T22:52:55.155Z,102151.97
2022-07-27T22:55:22.895Z,102154.25
2022-07-27T22:57:52.030Z,102151.44
2022-07-27T23:00:19.980Z,102152.84
2022-07-27T23:02:48.712Z,102153.16
2022-07-27T23:05:16.610Z,102162.72
2022-07-27T23:07:44.404Z,102154.59
2022-07-27T23:10:32.450Z,102154.03
2022-07-27T23:13:01.547Z,102153.78
2022-07-27T23:15:30.743Z,102152.09
2022-07-27T23:17:58.452Z,102147.63
2022-07-27T23:20:26.199Z,102152.09
2022-07-27T23:22:54.646Z,102146.47
2022-07-27T23:25:24.761Z,102149.28
2022-07-27T23:28:05.743Z,102149.59
2022-07-27T23:30:33.557Z,102148.75
2022-07-27T23:33:01.384Z,102149.28
2022-07-27T23:35:29.390Z,102142.84
2022-07-27T23:37:57.120Z,102143.97
2022-07-27T23:40:24.991Z,102142.00
2022-07-27T23:42:52.835Z,102142.00
2022-07-27T23:45:22.013Z,102143.97
2022-07-27T23:47:49.804Z,102143.13
2022-07-27T23:50:17.697Z,102144.59
2022-07-27T23:52:45.498Z,102136.16
2022-07-27T23:55:13.277Z,102142.06
2022-07-27T23:57:41.035Z,102144.34
